sensor_id;sensor_type;location;lat;lon;timestamp;temperature;humidity
13835;DHT22;6988;52.614;13.500;2024-03-02T00:03:32;6.80;99.90
13835;DHT22;6988;52.614;13.500;2024-03-02T00:08:25;6.80;99.90
13835;DHT22;6988;52.614;13.500;2024-03-02T00:13:20;6.80;99.90
13835;DHT22;6988;52.614;13.500;2024-03-02T00:18:18;6.90;99.90
13835;DHT22;6988;52.614;13.500;2024-03-02T00:23:15;6.90;99.90
13835;DHT22;6988;52.614;13.500;2024-03-02T00:28:16;6.90;99.90
13835;DHT22;6988;52.614;13.500;2024-03-02T00:33:10;6.90;99.90
13835;DHT22;6988;52.614;13.500;2024-03-02T00:38:05;6.90;99.90
13835;DHT22;6988;52.614;13.500;2024-03-02T00:42:58;6.90;99.90
13835;DHT22;6988;52.614;13.500;2024-03-02T00:47:50;7.00;99.90
13835;DHT22;6988;52.614;13.500;2024-03-02T00:52:42;7.00;99.90
13835;DHT22;6988;52.614;13.500;2024-03-02T00:57:36;7.00;99.90
13835;DHT22;6988;52.614;13.500;2024-03-02T01:02:28;7.00;99.90
13835;DHT22;6988;52.614;13.500;2024-03-02T01:07:20;7.10;99.90
13835;DHT22;6988;52.614;13.500;2024-03-02T01:12:12;7.10;99.90
13835;DHT22;6988;52.614;13.500;2024-03-02T01:17:06;7.20;99.90
13835;DHT22;6988;52.614;13.500;2024-03-02T01:21:58;7.20;99.90
13835;DHT22;6988;52.614;13.500;2024-03-02T01:26:50;7.30;99.90
13835;DHT22;6988;52.614;13.500;2024-03-02T01:31:42;7.30;99.90
13835;DHT22;6988;52.614;13.500;2024-03-02T01:36:35;7.30;99.90
13835;DHT22;6988;52.614;13.500;2024-03-02T01:41:27;7.20;99.90
13835;DHT22;6988;52.614;13.500;2024-03-02T01:46:19;7.20;99.90
13835;DHT22;6988;52.614;13.500;2024-03-02T01:51:11;7.30;99.90
13835;DHT22;6988;52.614;13.500;2024-03-02T01:56:05;7.30;99.90
13835;DHT22;6988;52.614;13.500;2024-03-02T02:00:57;7.30;99.90
13835;DHT22;6988;52.614;13.500;2024-03-02T02:05:53;7.30;99.90
13835;DHT22;6988;52.614;13.500;2024-03-02T02:10:45;7.30;99.90
13835;DHT22;6988;52.614;13.500;2024-03-02T02:15:38;7.30;99.90
13835;DHT22;6988;52.614;13.500;2024-03-02T02:20:30;7.40;99.90
13835;DHT22;6988;52.614;13.500;2024-03-02T02:25:24;7.40;99.90
13835;DHT22;6988;52.614;13.500;2024-03-02T02:30:19;7.50;99.90
13835;DHT22;6988;52.614;13.500;2024-03-02T02:35:12;7.60;99.90
13835;DHT22;6988;52.614;13.500;2024-03-02T02:40:05;7.60;99.90
13835;DHT22;6988;52.614;13.500;2024-03-02T02:44:59;7.50;99.90
13835;DHT22;6988;52.614;13.500;2024-03-02T02:49:51;7.60;99.90
13835;DHT22;6988;52.614;13.500;2024-03-02T02:54:43;7.50;99.90
13835;DHT22;6988;52.614;13.500;2024-03-02T02:59:35;7.70;99.90
13835;DHT22;6988;52.614;13.500;2024-03-02T03:04:29;7.60;99.90
13835;DHT22;6988;52.614;13.500;2024-03-02T03:09:21;7.80;99.90
13835;DHT22;6988;52.614;13.500;2024-03-02T03:14:13;7.80;99.90
13835;DHT22;6988;52.614;13.500;2024-03-02T03:19:05;7.90;99.90
13835;DHT22;6988;52.614;13.500;2024-03-02T03:23:58;7.90;99.90
13835;DHT22;6988;52.614;13.500;2024-03-02T03:28:50;7.90;99.90
13835;DHT22;6988;52.614;13.500;2024-03-02T03:33:42;8.00;99.90
13835;DHT22;6988;52.614;13.500;2024-03-02T03:38:34;8.10;99.90
13835;DHT22;6988;52.614;13.500;2024-03-02T03:43:28;8.00;99.90
13835;DHT22;6988;52.614;13.500;2024-03-02T03:48:20;8.00;99.90
13835;DHT22;6988;52.614;13.500;2024-03-02T03:53:12;8.00;99.90
13835;DHT22;6988;52.614;13.500;2024-03-02T03:58:05;8.10;99.90
13835;DHT22;6988;52.614;13.500;2024-03-02T04:02:58;8.10;99.90
13835;DHT22;6988;52.614;13.500;2024-03-02T04:07:50;8.10;99.90
13835;DHT22;6988;52.614;13.500;2024-03-02T04:12:42;8.10;99.90
13835;DHT22;6988;52.614;13.500;2024-03-02T04:17:34;8.00;99.90
13835;DHT22;6988;52.614;13.500;2024-03-02T04:22:28;8.10;99.90
13835;DHT22;6988;52.614;13.500;2024-03-02T04:27:20;8.20;99.90
13835;DHT22;6988;52.614;13.500;2024-03-02T04:32:12;8.20;99.90
13835;DHT22;6988;52.614;13.500;2024-03-02T04:37:04;8.20;99.90
13835;DHT22;6988;52.614;13.500;2024-03-02T04:41:58;8.20;99.90
13835;DHT22;6988;52.614;13.500;2024-03-02T04:46:50;8.20;99.90
13835;DHT22;6988;52.614;13.500;2024-03-02T04:51:42;8.20;99.90
13835;DHT22;6988;52.614;13.500;2024-03-02T04:56:34;8.20;99.90
13835;DHT22;6988;52.614;13.500;2024-03-02T05:01:36;8.10;99.90
13835;DHT22;6988;52.614;13.500;2024-03-02T05:06:28;8.10;99.90
13835;DHT22;6988;52.614;13.500;2024-03-02T05:11:20;8.10;99.90
13835;DHT22;6988;52.614;13.500;2024-03-02T05:16:43;8.00;99.90
13835;DHT22;6988;52.614;13.500;2024-03-02T05:21:35;8.10;99.90
13835;DHT22;6988;52.614;13.500;2024-03-02T05:26:27;8.20;99.90
13835;DHT22;6988;52.614;13.500;2024-03-02T05:31:19;8.20;99.90
13835;DHT22;6988;52.614;13.500;2024-03-02T05:36:12;8.20;99.90
13835;DHT22;6988;52.614;13.500;2024-03-02T05:41:04;8.30;99.90
13835;DHT22;6988;52.614;13.500;2024-03-02T05:45:56;8.40;99.90
13835;DHT22;6988;52.614;13.500;2024-03-02T05:50:48;8.40;99.90
13835;DHT22;6988;52.614;13.500;2024-03-02T05:55:42;8.40;99.90
13835;DHT22;6988;52.614;13.500;2024-03-02T06:00:35;8.50;99.90
13835;DHT22;6988;52.614;13.500;2024-03-02T06:05:27;8.60;99.90
13835;DHT22;6988;52.614;13.500;2024-03-02T06:10:19;8.70;99.90
13835;DHT22;6988;52.614;13.500;2024-03-02T06:15:12;8.70;99.90
13835;DHT22;6988;52.614;13.500;2024-03-02T06:20:05;8.60;99.90
13835;DHT22;6988;52.614;13.500;2024-03-02T06:24:58;8.70;99.90
13835;DHT22;6988;52.614;13.500;2024-03-02T06:29:50;8.70;99.90
13835;DHT22;6988;52.614;13.500;2024-03-02T06:34:44;8.70;99.90
13835;DHT22;6988;52.614;13.500;2024-03-02T06:39:36;8.80;99.90
13835;DHT22;6988;52.614;13.500;2024-03-02T06:44:27;8.70;99.90
13835;DHT22;6988;52.614;13.500;2024-03-02T06:49:19;8.70;99.90
13835;DHT22;6988;52.614;13.500;2024-03-02T06:54:13;8.70;99.90
13835;DHT22;6988;52.614;13.500;2024-03-02T06:59:04;8.70;99.90
13835;DHT22;6988;52.614;13.500;2024-03-02T07:03:57;8.70;99.90
13835;DHT22;6988;52.614;13.500;2024-03-02T07:08:49;8.70;99.90
13835;DHT22;6988;52.614;13.500;2024-03-02T07:13:42;8.90;99.90
13835;DHT22;6988;52.614;13.500;2024-03-02T07:18:34;8.90;99.90
13835;DHT22;6988;52.614;13.500;2024-03-02T07:23:31;8.90;99.90
13835;DHT22;6988;52.614;13.500;2024-03-02T07:28:23;8.90;99.90
13835;DHT22;6988;52.614;13.500;2024-03-02T07:33:16;8.90;99.90
13835;DHT22;6988;52.614;13.500;2024-03-02T07:38:08;9.00;99.90
13835;DHT22;6988;52.614;13.500;2024-03-02T07:43:00;9.00;99.90
13835;DHT22;6988;52.614;13.500;2024-03-02T07:47:53;9.10;99.90
13835;DHT22;6988;52.614;13.500;2024-03-02T07:52:46;8.90;99.90
13835;DHT22;6988;52.614;13.500;2024-03-02T07:57:38;8.90;99.90
13835;DHT22;6988;52.614;13.500;2024-03-02T08:02:30;8.90;99.90
13835;DHT22;6988;52.614;13.500;2024-03-02T08:07:22;8.90;99.90
13835;DHT22;6988;52.614;13.500;2024-03-02T08:12:16;8.80;99.90
13835;DHT22;6988;52.614;13.500;2024-03-02T08:17:10;8.90;99.90
13835;DHT22;6988;52.614;13.500;2024-03-02T08:22:02;9.20;99.90
13835;DHT22;6988;52.614;13.500;2024-03-02T08:26:54;9.10;99.90
13835;DHT22;6988;52.614;13.500;2024-03-02T08:31:48;9.10;99.90
13835;DHT22;6988;52.614;13.500;2024-03-02T08:36:41;9.10;99.90
13835;DHT22;6988;52.614;13.500;2024-03-02T08:41:33;9.00;99.90
13835;DHT22;6988;52.614;13.500;2024-03-02T08:46:25;9.00;99.90
13835;DHT22;6988;52.614;13.500;2024-03-02T08:51:18;9.10;99.90
13835;DHT22;6988;52.614;13.500;2024-03-02T08:56:11;9.10;99.90
13835;DHT22;6988;52.614;13.500;2024-03-02T09:01:03;9.30;99.90
13835;DHT22;6988;52.614;13.500;2024-03-02T09:05:57;9.40;99.90
13835;DHT22;6988;52.614;13.500;2024-03-02T09:10:51;9.30;99.90
13835;DHT22;6988;52.614;13.500;2024-03-02T09:15:43;9.20;99.90
13835;DHT22;6988;52.614;13.500;2024-03-02T09:20:35;9.20;99.90
13835;DHT22;6988;52.614;13.500;2024-03-02T09:25:27;9.20;99.90
13835;DHT22;6988;52.614;13.500;2024-03-02T09:30:20;9.30;99.90
13835;DHT22;6988;52.614;13.500;2024-03-02T09:35:12;9.30;99.90
13835;DHT22;6988;52.614;13.500;2024-03-02T09:40:05;9.40;99.90
13835;DHT22;6988;52.614;13.500;2024-03-02T09:44:58;9.60;99.90
13835;DHT22;6988;52.614;13.500;2024-03-02T09:49:52;9.70;99.90
13835;DHT22;6988;52.614;13.500;2024-03-02T09:54:44;9.80;99.90
13835;DHT22;6988;52.614;13.500;2024-03-02T09:59:38;9.90;99.90
13835;DHT22;6988;52.614;13.500;2024-03-02T10:04:30;10.10;99.90
13835;DHT22;6988;52.614;13.500;2024-03-02T10:09:28;10.10;99.90
13835;DHT22;6988;52.614;13.500;2024-03-02T10:14:20;10.30;99.90
13835;DHT22;6988;52.614;13.500;2024-03-02T10:19:16;10.50;99.90
13835;DHT22;6988;52.614;13.500;2024-03-02T10:24:09;10.50;99.90
13835;DHT22;6988;52.614;13.500;2024-03-02T10:29:03;10.60;99.90
13835;DHT22;6988;52.614;13.500;2024-03-02T10:33:54;10.60;99.90
13835;DHT22;6988;52.614;13.500;2024-03-02T10:38:47;10.90;99.90
13835;DHT22;6988;52.614;13.500;2024-03-02T10:43:39;11.10;99.90
13835;DHT22;6988;52.614;13.500;2024-03-02T10:48:33;11.30;99.90
13835;DHT22;6988;52.614;13.500;2024-03-02T10:53:27;11.40;99.90
13835;DHT22;6988;52.614;13.500;2024-03-02T10:58:19;11.50;99.90
13835;DHT22;6988;52.614;13.500;2024-03-02T11:03:12;11.70;99.90
13835;DHT22;6988;52.614;13.500;2024-03-02T11:08:11;11.80;99.90
13835;DHT22;6988;52.614;13.500;2024-03-02T11:13:05;11.90;99.90
13835;DHT22;6988;52.614;13.500;2024-03-02T11:18:01;12.10;99.90
13835;DHT22;6988;52.614;13.500;2024-03-02T11:23:04;12.30;99.90
13835;DHT22;6988;52.614;13.500;2024-03-02T11:28:00;12.20;99.90
13835;DHT22;6988;52.614;13.500;2024-03-02T11:32:55;12.20;99.90
13835;DHT22;6988;52.614;13.500;2024-03-02T11:37:47;12.50;99.90
13835;DHT22;6988;52.614;13.500;2024-03-02T11:42:41;12.60;99.90
13835;DHT22;6988;52.614;13.500;2024-03-02T11:47:33;12.50;99.90
13835;DHT22;6988;52.614;13.500;2024-03-02T11:52:26;12.50;99.90
13835;DHT22;6988;52.614;13.500;2024-03-02T11:57:21;12.60;99.90
13835;DHT22;6988;52.614;13.500;2024-03-02T12:02:17;12.80;99.90
13835;DHT22;6988;52.614;13.500;2024-03-02T12:07:09;12.90;99.90
13835;DHT22;6988;52.614;13.500;2024-03-02T12:12:04;12.90;99.90
13835;DHT22;6988;52.614;13.500;2024-03-02T12:16:56;12.90;99.90
13835;DHT22;6988;52.614;13.500;2024-03-02T12:21:50;12.90;99.90
13835;DHT22;6988;52.614;13.500;2024-03-02T12:26:43;12.80;99.90
13835;DHT22;6988;52.614;13.500;2024-03-02T12:31:37;12.90;99.90
13835;DHT22;6988;52.614;13.500;2024-03-02T12:36:30;13.10;99.90
13835;DHT22;6988;52.614;13.500;2024-03-02T12:41:30;13.20;99.90
13835;DHT22;6988;52.614;13.500;2024-03-02T12:46:22;13.20;99.90
13835;DHT22;6988;52.614;13.500;2024-03-02T12:51:14;13.00;99.90
13835;DHT22;6988;52.614;13.500;2024-03-02T12:56:08;13.20;99.90
13835;DHT22;6988;52.614;13.500;2024-03-02T13:01:08;13.30;99.90
13835;DHT22;6988;52.614;13.500;2024-03-02T13:06:01;13.40;99.90
13835;DHT22;6988;52.614;13.500;2024-03-02T13:10:53;13.50;99.90
13835;DHT22;6988;52.614;13.500;2024-03-02T13:15:46;13.40;99.90
13835;DHT22;6988;52.614;13.500;2024-03-02T13:20:39;13.60;99.90
13835;DHT22;6988;52.614;13.500;2024-03-02T13:25:31;13.70;99.90
13835;DHT22;6988;52.614;13.500;2024-03-02T13:30:24;13.70;99.90
13835;DHT22;6988;52.614;13.500;2024-03-02T13:35:16;13.60;99.90
13835;DHT22;6988;52.614;13.500;2024-03-02T13:40:11;13.90;99.90
13835;DHT22;6988;52.614;13.500;2024-03-02T13:45:08;14.00;99.90
13835;DHT22;6988;52.614;13.500;2024-03-02T13:50:00;14.20;99.90
13835;DHT22;6988;52.614;13.500;2024-03-02T13:54:53;14.40;96.90
13835;DHT22;6988;52.614;13.500;2024-03-02T13:59:47;14.30;98.70
13835;DHT22;6988;52.614;13.500;2024-03-02T14:04:39;14.40;99.90
13835;DHT22;6988;52.614;13.500;2024-03-02T14:09:31;14.80;99.90
13835;DHT22;6988;52.614;13.500;2024-03-02T14:14:23;14.90;93.90
13835;DHT22;6988;52.614;13.500;2024-03-02T14:19:17;15.00;95.60
13835;DHT22;6988;52.614;13.500;2024-03-02T14:24:09;14.80;70.40
13835;DHT22;6988;52.614;13.500;2024-03-02T14:29:01;14.70;91.00
13835;DHT22;6988;52.614;13.500;2024-03-02T14:33:53;14.60;94.40
13835;DHT22;6988;52.614;13.500;2024-03-02T14:38:47;14.70;99.90
13835;DHT22;6988;52.614;13.500;2024-03-02T14:43:39;14.80;92.30
13835;DHT22;6988;52.614;13.500;2024-03-02T14:48:31;14.60;99.90
13835;DHT22;6988;52.614;13.500;2024-03-02T14:53:23;14.50;99.90
13835;DHT22;6988;52.614;13.500;2024-03-02T14:58:16;14.40;99.90
13835;DHT22;6988;52.614;13.500;2024-03-02T15:03:09;14.20;99.90
13835;DHT22;6988;52.614;13.500;2024-03-02T15:08:02;14.00;99.90
13835;DHT22;6988;52.614;13.500;2024-03-02T15:12:55;13.90;99.90
13835;DHT22;6988;52.614;13.500;2024-03-02T15:17:48;13.60;99.90
13835;DHT22;6988;52.614;13.500;2024-03-02T15:22:41;13.40;99.90
13835;DHT22;6988;52.614;13.500;2024-03-02T15:27:33;13.10;99.90
13835;DHT22;6988;52.614;13.500;2024-03-02T15:32:25;12.90;99.90
13835;DHT22;6988;52.614;13.500;2024-03-02T15:37:19;12.70;99.90
13835;DHT22;6988;52.614;13.500;2024-03-02T15:42:11;12.50;99.90
13835;DHT22;6988;52.614;13.500;2024-03-02T15:47:03;12.40;99.90
13835;DHT22;6988;52.614;13.500;2024-03-02T15:51:55;12.20;99.90
13835;DHT22;6988;52.614;13.500;2024-03-02T15:56:52;12.10;99.90
13835;DHT22;6988;52.614;13.500;2024-03-02T16:01:44;12.00;99.90
13835;DHT22;6988;52.614;13.500;2024-03-02T16:06:38;11.80;99.90
13835;DHT22;6988;52.614;13.500;2024-03-02T16:11:30;11.60;99.90
13835;DHT22;6988;52.614;13.500;2024-03-02T16:16:25;11.60;99.90
13835;DHT22;6988;52.614;13.500;2024-03-02T16:21:17;11.50;99.90
13835;DHT22;6988;52.614;13.500;2024-03-02T16:26:10;11.30;99.90
13835;DHT22;6988;52.614;13.500;2024-03-02T16:31:06;11.10;99.90
13835;DHT22;6988;52.614;13.500;2024-03-02T16:42:28;10.80;99.90
13835;DHT22;6988;52.614;13.500;2024-03-02T16:47:20;10.70;99.90
13835;DHT22;6988;52.614;13.500;2024-03-02T16:52:12;10.50;99.90
13835;DHT22;6988;52.614;13.500;2024-03-02T16:57:05;10.40;99.90
13835;DHT22;6988;52.614;13.500;2024-03-02T17:01:58;10.40;99.90
13835;DHT22;6988;52.614;13.500;2024-03-02T17:06:50;10.30;99.90
13835;DHT22;6988;52.614;13.500;2024-03-02T17:11:42;10.20;99.90
13835;DHT22;6988;52.614;13.500;2024-03-02T17:16:34;10.10;99.90
13835;DHT22;6988;52.614;13.500;2024-03-02T17:21:28;10.10;99.90
13835;DHT22;6988;52.614;13.500;2024-03-02T17:26:21;10.00;99.90
13835;DHT22;6988;52.614;13.500;2024-03-02T17:31:13;10.00;99.90
13835;DHT22;6988;52.614;13.500;2024-03-02T17:36:05;9.90;99.90
13835;DHT22;6988;52.614;13.500;2024-03-02T17:40:59;9.80;99.90
13835;DHT22;6988;52.614;13.500;2024-03-02T17:45:51;9.70;99.90
13835;DHT22;6988;52.614;13.500;2024-03-02T17:50:43;9.60;99.90
13835;DHT22;6988;52.614;13.500;2024-03-02T17:55:35;9.50;99.90
13835;DHT22;6988;52.614;13.500;2024-03-02T18:00:29;9.40;99.90
13835;DHT22;6988;52.614;13.500;2024-03-02T18:05:21;9.40;99.90
13835;DHT22;6988;52.614;13.500;2024-03-02T18:10:13;9.50;99.90
13835;DHT22;6988;52.614;13.500;2024-03-02T18:15:06;9.40;99.90
13835;DHT22;6988;52.614;13.500;2024-03-02T18:20:00;9.20;99.90
13835;DHT22;6988;52.614;13.500;2024-03-02T18:24:54;9.10;99.90
13835;DHT22;6988;52.614;13.500;2024-03-02T18:29:46;9.10;99.90
13835;DHT22;6988;52.614;13.500;2024-03-02T18:34:38;9.10;99.90
13835;DHT22;6988;52.614;13.500;2024-03-02T18:39:32;9.10;99.90
13835;DHT22;6988;52.614;13.500;2024-03-02T18:44:24;9.10;99.90
13835;DHT22;6988;52.614;13.500;2024-03-02T18:49:16;9.10;99.90
13835;DHT22;6988;52.614;13.500;2024-03-02T18:54:08;9.00;99.90
13835;DHT22;6988;52.614;13.500;2024-03-02T18:59:03;8.90;99.90
13835;DHT22;6988;52.614;13.500;2024-03-02T19:03:55;8.90;99.90
13835;DHT22;6988;52.614;13.500;2024-03-02T19:08:47;8.90;99.90
13835;DHT22;6988;52.614;13.500;2024-03-02T19:13:38;8.90;99.90
13835;DHT22;6988;52.614;13.500;2024-03-02T19:18:32;8.90;99.90
13835;DHT22;6988;52.614;13.500;2024-03-02T19:23:23;8.90;99.90
13835;DHT22;6988;52.614;13.500;2024-03-02T19:28:16;8.90;99.90
13835;DHT22;6988;52.614;13.500;2024-03-02T19:33:07;8.90;99.90
13835;DHT22;6988;52.614;13.500;2024-03-02T19:38:01;8.90;99.90
13835;DHT22;6988;52.614;13.500;2024-03-02T19:42:53;8.80;99.90
13835;DHT22;6988;52.614;13.500;2024-03-02T19:47:45;8.80;99.90
13835;DHT22;6988;52.614;13.500;2024-03-02T19:52:36;8.70;99.90
13835;DHT22;6988;52.614;13.500;2024-03-02T19:57:29;8.60;99.90
13835;DHT22;6988;52.614;13.500;2024-03-02T20:02:23;8.90;99.90
13835;DHT22;6988;52.614;13.500;2024-03-02T20:07:17;8.90;99.90
13835;DHT22;6988;52.614;13.500;2024-03-02T20:12:09;8.80;99.90
13835;DHT22;6988;52.614;13.500;2024-03-02T20:17:02;8.70;99.90
13835;DHT22;6988;52.614;13.500;2024-03-02T20:21:54;8.80;99.90
13835;DHT22;6988;52.614;13.500;2024-03-02T20:26:48;8.80;99.90
13835;DHT22;6988;52.614;13.500;2024-03-02T20:31:40;8.70;99.90
13835;DHT22;6988;52.614;13.500;2024-03-02T20:36:33;8.80;99.90
13835;DHT22;6988;52.614;13.500;2024-03-02T20:41:25;8.80;99.90
13835;DHT22;6988;52.614;13.500;2024-03-02T20:46:17;8.60;99.90
13835;DHT22;6988;52.614;13.500;2024-03-02T20:51:09;8.80;99.90
13835;DHT22;6988;52.614;13.500;2024-03-02T20:56:02;8.70;99.90
13835;DHT22;6988;52.614;13.500;2024-03-02T21:00:55;8.70;99.90
13835;DHT22;6988;52.614;13.500;2024-03-02T21:05:46;8.70;99.90
13835;DHT22;6988;52.614;13.500;2024-03-02T21:10:38;8.60;99.90
13835;DHT22;6988;52.614;13.500;2024-03-02T21:15:31;8.60;99.90
13835;DHT22;6988;52.614;13.500;2024-03-02T21:20:23;8.60;99.90
13835;DHT22;6988;52.614;13.500;2024-03-02T21:25:15;8.60;99.90
13835;DHT22;6988;52.614;13.500;2024-03-02T21:30:11;8.70;99.90
13835;DHT22;6988;52.614;13.500;2024-03-02T21:35:05;8.60;99.90
13835;DHT22;6988;52.614;13.500;2024-03-02T21:39:58;8.50;99.90
13835;DHT22;6988;52.614;13.500;2024-03-02T21:45:05;8.50;99.90
13835;DHT22;6988;52.614;13.500;2024-03-02T21:49:57;8.40;99.90
13835;DHT22;6988;52.614;13.500;2024-03-02T21:54:51;8.30;99.90
13835;DHT22;6988;52.614;13.500;2024-03-02T21:59:43;8.30;99.90
13835;DHT22;6988;52.614;13.500;2024-03-02T22:04:35;8.20;99.90
13835;DHT22;6988;52.614;13.500;2024-03-02T22:09:27;8.10;99.90
13835;DHT22;6988;52.614;13.500;2024-03-02T22:14:20;8.20;99.90
13835;DHT22;6988;52.614;13.500;2024-03-02T22:19:12;8.20;99.90
13835;DHT22;6988;52.614;13.500;2024-03-02T22:24:04;8.10;99.90
13835;DHT22;6988;52.614;13.500;2024-03-02T22:28:56;8.00;99.90
13835;DHT22;6988;52.614;13.500;2024-03-02T22:33:50;8.10;99.90
13835;DHT22;6988;52.614;13.500;2024-03-02T22:38:42;8.00;99.90
13835;DHT22;6988;52.614;13.500;2024-03-02T22:43:34;8.00;99.90
13835;DHT22;6988;52.614;13.500;2024-03-02T23:03:46;7.60;99.90
13835;DHT22;6988;52.614;13.500;2024-03-02T23:08:39;7.50;99.90
13835;DHT22;6988;52.614;13.500;2024-03-02T23:13:31;7.60;99.90
13835;DHT22;6988;52.614;13.500;2024-03-02T23:18:23;7.60;99.90
13835;DHT22;6988;52.614;13.500;2024-03-02T23:23:17;7.60;99.90
13835;DHT22;6988;52.614;13.500;2024-03-02T23:28:09;7.70;99.90
13835;DHT22;6988;52.614;13.500;2024-03-02T23:33:01;7.70;99.90
13835;DHT22;6988;52.614;13.500;2024-03-02T23:37:53;7.80;99.90
13835;DHT22;6988;52.614;13.500;2024-03-02T23:42:46;7.80;99.90
13835;DHT22;6988;52.614;13.500;2024-03-02T23:47:38;7.70;99.90
13835;DHT22;6988;52.614;13.500;2024-03-02T23:52:31;7.70;99.90
13835;DHT22;6988;52.614;13.500;2024-03-02T23:57:23;7.70;99.90
